Time;durP1;ratioP1;P1;durP2;ratioP2;P2;SDS_P1;SDS_P2;PMS_P1;PMS_P2;Temp;Humidity;BMP_temperature;BMP_pressure;BME280_temperature;BME280_humidity;BME280_pressure;Samples;Min_cycle;Max_cycle;Signal;HPM_P1;HPM_P2
2022/12/23 00:00:03;;;;;;;0.10;0.10;;;10.10;99.90;;;;;;5060012;28;20208;-80
2022/12/23 00:02:29;;;;;;;0.00;0.00;;;9.90;99.90;;;;;;5057948;28;20198;-81
2022/12/23 00:04:54;;;;;;;0.10;0.10;;;9.80;99.90;;;;;;5059917;28;20197;-80
2022/12/23 00:07:20;;;;;;;0.10;0.10;;;9.70;99.90;;;;;;5056868;28;20732;-80
2022/12/23 00:09:45;;;;;;;0.10;0.10;;;9.80;99.90;;;;;;5075860;28;20204;-81
2022/12/23 00:15:04;;;;;;;0.10;0.10;;;10.00;99.90;;;;;;5059722;28;20688;-80
2022/12/23 00:17:33;;;;;;;0.10;0.10;;;9.90;99.90;;;;;;5073530;28;20181;-80
2022/12/23 00:19:59;;;;;;;0.10;0.10;;;10.10;99.90;;;;;;5057165;28;20197;-80
2022/12/23 00:25:10;;;;;;;0.10;0.10;;;10.20;99.90;;;;;;5059864;28;20206;-80
2022/12/23 00:27:35;;;;;;;0.03;0.03;;;10.30;99.90;;;;;;5059805;28;20207;-80
2022/12/23 00:30:01;;;;;;;0.10;0.10;;;10.30;99.90;;;;;;5073250;28;20197;-80
2022/12/23 00:32:26;;;;;;;0.10;0.10;;;10.30;99.90;;;;;;5071840;28;20185;-80
2022/12/23 00:34:52;;;;;;;0.00;0.00;;;10.40;99.90;;;;;;5073250;28;20252;-80
2022/12/23 00:37:17;;;;;;;0.10;0.10;;;10.40;99.90;;;;;;5076251;28;20177;-80
2022/12/23 00:45:14;;;;;;;0.10;0.10;;;10.50;99.90;;;;;;5059339;28;20720;-80
2022/12/23 00:50:24;;;;;;;0.10;0.10;;;10.50;99.90;;;;;;5057531;28;20200;-80
2022/12/23 00:52:50;;;;;;;0.10;0.10;;;10.40;99.90;;;;;;5056923;28;20185;-80
2022/12/23 00:55:15;;;;;;;0.10;0.10;;;10.50;99.90;;;;;;5057932;28;20256;-81
2022/12/23 00:57:41;;;;;;;0.10;0.10;;;10.50;99.90;;;;;;5057210;28;20666;-81
2022/12/23 01:00:07;;;;;;;0.10;0.10;;;10.50;99.90;;;;;;5073686;28;20259;-81
2022/12/23 01:08:04;;;;;;;0.10;0.10;;;10.50;99.90;;;;;;5058056;28;20309;-80
2022/12/23 01:10:30;;;;;;;0.10;0.10;;;10.60;99.90;;;;;;5057157;28;20832;-81
2022/12/23 01:12:56;;;;;;;0.10;0.10;;;10.60;99.90;;;;;;5074280;28;20297;-80
2022/12/23 01:15:21;;;;;;;0.07;0.07;;;10.60;99.90;;;;;;5057089;28;20702;-80
2022/12/23 01:17:47;;;;;;;0.10;0.10;;;10.60;99.90;;;;;;5072025;28;20185;-80
2022/12/23 01:20:12;;;;;;;0.10;0.10;;;10.40;99.90;;;;;;5056663;28;20690;-80
2022/12/23 01:22:38;;;;;;;0.10;0.10;;;10.30;99.90;;;;;;5073760;28;20184;-80
2022/12/23 01:25:04;;;;;;;0.10;0.10;;;10.30;99.90;;;;;;5075605;28;20185;-81
2022/12/23 01:27:29;;;;;;;0.10;0.10;;;10.30;99.90;;;;;;5057477;28;20185;-81
2022/12/23 01:29:55;;;;;;;0.10;0.10;;;10.40;99.90;;;;;;5072737;28;20216;-80
2022/12/23 01:32:20;;;;;;;0.10;0.10;;;10.40;99.90;;;;;;5060100;28;20215;-81
2022/12/23 01:34:46;;;;;;;0.10;0.10;;;10.30;99.90;;;;;;5055932;28;20192;-80
2022/12/23 01:37:11;;;;;;;0.10;0.10;;;10.30;99.90;;;;;;5054712;28;20186;-80
2022/12/23 01:39:37;;;;;;;0.10;0.10;;;10.30;99.90;;;;;;5058973;28;20235;-80
2022/12/23 01:45:03;;;;;;;0.10;0.10;;;10.30;99.90;;;;;;5058118;28;20220;-80
2022/12/23 01:47:54;;;;;;;0.10;0.10;;;10.30;99.90;;;;;;5056260;28;20589;-80
2022/12/23 01:50:45;;;;;;;0.10;0.10;;;10.30;99.90;;;;;;5065644;28;20324;-80
2022/12/23 01:53:19;;;;;;;0.03;0.03;;;10.30;99.90;;;;;;5072102;28;20184;-81
2022/12/23 01:55:56;;;;;;;0.10;0.10;;;10.30;99.90;;;;;;5073806;28;20230;-81
2022/12/23 01:58:35;;;;;;;0.10;0.10;;;10.30;99.90;;;;;;5059251;28;20286;-81
2022/12/23 02:03:48;;;;;;;0.10;0.10;;;10.40;99.90;;;;;;5060059;28;20197;-80
2022/12/23 02:09:16;;;;;;;0.10;0.10;;;10.50;99.90;;;;;;5061554;28;20796;-81
2022/12/23 02:12:15;;;;;;;0.10;0.10;;;10.50;99.90;;;;;;5062276;28;20204;-80
2022/12/23 02:18:34;;;;;;;0.00;0.00;;;10.50;99.90;;;;;;5062294;28;20284;-80
2022/12/23 02:21:50;;;;;;;0.10;0.10;;;10.50;99.90;;;;;;5076406;28;20212;-81
2022/12/23 02:24:34;;;;;;;0.10;0.10;;;10.50;99.90;;;;;;5032603;28;20189;-80
2022/12/23 02:27:17;;;;;;;0.10;0.10;;;10.50;99.90;;;;;;5060978;28;20192;-80
2022/12/23 02:30:17;;;;;;;0.10;0.10;;;10.40;99.90;;;;;;5059588;28;20225;-80
2022/12/23 02:32:54;;;;;;;0.10;0.10;;;10.40;99.90;;;;;;5063725;28;20663;-80
2022/12/23 02:35:38;;;;;;;0.03;0.03;;;10.40;99.90;;;;;;5063905;28;20195;-80
2022/12/23 02:38:16;;;;;;;0.10;0.10;;;10.30;99.90;;;;;;5074465;28;20271;-81
2022/12/23 02:40:52;;;;;;;0.10;0.10;;;10.30;99.90;;;;;;5074393;28;20235;-80
2022/12/23 02:43:42;;;;;;;0.10;0.10;;;10.30;99.90;;;;;;5061708;28;20203;-80
2022/12/23 02:46:19;;;;;;;0.10;0.10;;;10.30;99.90;;;;;;5075812;28;20192;-80
2022/12/23 02:48:54;;;;;;;0.10;0.10;;;10.20;99.90;;;;;;5078007;28;20240;-80
2022/12/23 02:51:25;;;;;;;0.10;0.10;;;10.10;99.90;;;;;;5062821;28;20238;-80
2022/12/23 02:53:55;;;;;;;0.00;0.00;;;10.20;99.90;;;;;;5060981;28;20189;-80
2022/12/23 02:56:23;;;;;;;0.10;0.10;;;10.20;99.90;;;;;;5062123;28;20185;-81
2022/12/23 02:58:57;;;;;;;0.10;0.10;;;10.30;99.90;;;;;;5076986;28;20200;-80
2022/12/23 03:01:26;;;;;;;0.10;0.10;;;10.30;99.90;;;;;;5062068;28;20599;-80
2022/12/23 03:03:51;;;;;;;0.10;0.10;;;10.30;99.90;;;;;;5062261;28;20799;-80
2022/12/23 03:06:28;;;;;;;0.10;0.10;;;10.30;99.90;;;;;;5057979;28;20186;-80
2022/12/23 03:08:56;;;;;;;0.10;0.10;;;10.30;99.90;;;;;;5059746;28;20292;-80
2022/12/23 03:11:38;;;;;;;0.10;0.10;;;10.30;99.90;;;;;;5059738;28;20189;-81
2022/12/23 03:14:26;;;;;;;0.10;0.10;;;10.30;99.90;;;;;;5075161;28;20176;-80
2022/12/23 03:17:13;;;;;;;0.10;0.10;;;10.30;99.90;;;;;;5062978;28;20256;-80
2022/12/23 03:19:50;;;;;;;0.00;0.00;;;10.30;99.90;;;;;;5076139;28;20258;-81
2022/12/23 03:22:25;;;;;;;0.10;0.10;;;10.30;99.90;;;;;;5058370;28;20184;-81
2022/12/23 03:25:20;;;;;;;0.10;0.10;;;10.30;99.90;;;;;;5059872;28;20195;-80
2022/12/23 03:27:58;;;;;;;0.00;0.00;;;10.30;99.90;;;;;;5076440;28;20205;-80
2022/12/23 03:30:24;;;;;;;0.03;0.03;;;10.30;99.90;;;;;;5075444;28;20231;-80
2022/12/23 03:32:59;;;;;;;0.10;0.10;;;10.30;99.90;;;;;;5060498;28;20219;-81
2022/12/23 03:35:32;;;;;;;0.10;0.10;;;10.30;99.90;;;;;;5074795;28;20287;-80
2022/12/23 03:38:01;;;;;;;0.10;0.10;;;10.30;99.90;;;;;;5062295;28;20780;-80
2022/12/23 03:40:36;;;;;;;0.10;0.10;;;10.30;99.90;;;;;;5060059;28;20265;-80
2022/12/23 03:43:09;;;;;;;0.03;0.03;;;10.20;99.90;;;;;;5077778;28;20720;-80
2022/12/23 03:45:49;;;;;;;0.07;0.07;;;10.20;99.90;;;;;;5058059;28;20178;-80
2022/12/23 03:48:36;;;;;;;0.10;0.10;;;10.10;99.90;;;;;;5073565;28;20239;-80
2022/12/23 03:51:13;;;;;;;0.10;0.10;;;10.10;99.90;;;;;;5072869;28;20205;-81
2022/12/23 03:53:48;;;;;;;0.10;0.10;;;10.00;99.90;;;;;;5072434;28;20234;-80
2022/12/23 03:56:19;;;;;;;0.00;0.00;;;10.00;99.90;;;;;;5073049;28;20185;-80
2022/12/23 03:58:56;;;;;;;0.10;0.10;;;10.00;99.90;;;;;;5060137;28;20230;-80
2022/12/23 04:01:44;;;;;;;0.10;0.10;;;10.00;99.90;;;;;;5058216;28;20594;-80
2022/12/23 04:04:18;;;;;;;0.10;0.10;;;9.90;99.90;;;;;;5057134;28;20530;-80
2022/12/23 04:07:19;;;;;;;0.10;0.10;;;9.80;99.90;;;;;;5059978;28;20214;-80
2022/12/23 04:09:46;;;;;;;0.10;0.10;;;9.90;99.90;;;;;;5067537;28;20237;-79
2022/12/23 04:12:13;;;;;;;0.10;0.10;;;9.90;99.90;;;;;;5074285;28;20193;-80
2022/12/23 04:14:45;;;;;;;0.10;0.10;;;9.90;99.90;;;;;;5073857;28;20188;-80
2022/12/23 04:17:11;;;;;;;0.10;0.10;;;9.90;99.90;;;;;;5058445;28;20192;-80
2022/12/23 04:19:36;;;;;;;0.10;0.10;;;9.90;99.90;;;;;;5058828;28;20204;-80
2022/12/23 04:22:02;;;;;;;0.10;0.10;;;9.80;99.90;;;;;;5071114;28;20195;-79
2022/12/23 04:24:28;;;;;;;0.10;0.10;;;9.90;99.90;;;;;;5056784;28;20188;-80
2022/12/23 04:26:53;;;;;;;0.10;0.10;;;9.90;99.90;;;;;;5071054;28;20814;-80
2022/12/23 04:29:19;;;;;;;0.10;0.10;;;9.90;99.90;;;;;;5057590;28;20817;-80
2022/12/23 04:31:44;;;;;;;0.10;0.10;;;9.90;99.90;;;;;;5058863;28;20673;-80
2022/12/23 04:34:10;;;;;;;0.10;0.10;;;9.80;99.90;;;;;;5058140;28;20209;-80
2022/12/23 04:36:35;;;;;;;0.10;0.10;;;9.80;99.90;;;;;;5075307;28;20180;-80
2022/12/23 04:39:01;;;;;;;0.10;0.10;;;9.80;99.90;;;;;;5057991;28;20210;-79
2022/12/23 04:41:26;;;;;;;0.10;0.10;;;9.70;99.90;;;;;;5058178;28;20270;-80
2022/12/23 04:43:52;;;;;;;0.10;0.10;;;9.70;99.90;;;;;;5057912;28;20912;-80
2022/12/23 04:46:17;;;;;;;0.10;0.10;;;9.70;99.90;;;;;;5058221;28;20840;-80
2022/12/23 04:48:43;;;;;;;0.10;0.10;;;9.70;99.90;;;;;;5056610;28;20299;-80
2022/12/23 04:51:08;;;;;;;0.10;0.10;;;9.60;99.90;;;;;;5057320;28;20742;-80
2022/12/23 04:53:37;;;;;;;0.10;0.10;;;9.20;99.90;;;;;;5072694;28;20188;-79
2022/12/23 04:56:03;;;;;;;0.10;0.10;;;9.10;99.90;;;;;;5058682;28;20185;-80
2022/12/23 04:58:28;;;;;;;0.00;0.00;;;9.20;99.90;;;;;;5057537;28;20349;-79
2022/12/23 05:01:05;;;;;;;0.10;0.10;;;9.20;99.90;;;;;;5075244;28;20213;-80
2022/12/23 05:03:31;;;;;;;0.10;0.10;;;9.10;99.90;;;;;;5057588;28;20646;-80
2022/12/23 05:05:57;;;;;;;0.10;0.10;;;9.20;99.90;;;;;;5058998;28;20188;-80
2022/12/23 05:08:22;;;;;;;0.10;0.10;;;8.90;99.90;;;;;;5073048;28;20212;-80
2022/12/23 05:10:48;;;;;;;0.10;0.10;;;9.00;99.90;;;;;;5057691;28;20214;-80
2022/12/23 05:13:14;;;;;;;0.10;0.10;;;9.20;99.90;;;;;;5058418;28;20188;-80
2022/12/23 05:15:42;;;;;;;0.10;0.10;;;9.20;99.90;;;;;;5059184;28;20205;-80
2022/12/23 05:18:07;;;;;;;0.10;0.10;;;9.30;99.90;;;;;;5073927;28;20195;-80
2022/12/23 05:20:33;;;;;;;0.10;0.10;;;9.40;99.90;;;;;;5059140;28;20209;-80
2022/12/23 05:22:58;;;;;;;0.10;0.10;;;9.40;99.90;;;;;;5057020;28;20215;-81
2022/12/23 05:25:24;;;;;;;0.10;0.10;;;9.50;99.90;;;;;;5055902;28;20188;-80
2022/12/23 05:27:49;;;;;;;0.10;0.10;;;9.30;99.90;;;;;;5057325;28;20283;-80
2022/12/23 05:30:15;;;;;;;0.10;0.10;;;9.10;99.90;;;;;;5056403;28;20218;-80
2022/12/23 05:32:40;;;;;;;0.10;0.10;;;8.90;99.90;;;;;;5055647;28;20489;-80
2022/12/23 05:35:06;;;;;;;0.10;0.10;;;8.60;99.90;;;;;;5057461;28;20195;-80
2022/12/23 05:37:31;;;;;;;0.10;0.10;;;8.50;99.90;;;;;;5054341;28;20176;-80
2022/12/23 05:39:57;;;;;;;0.10;0.10;;;8.40;99.90;;;;;;5070950;28;20211;-80
2022/12/23 05:42:22;;;;;;;0.10;0.10;;;8.40;99.90;;;;;;5071685;28;20190;-79
2022/12/23 05:44:48;;;;;;;0.10;0.10;;;8.40;99.90;;;;;;5073593;28;20206;-79
2022/12/23 05:47:13;;;;;;;0.10;0.10;;;8.40;99.90;;;;;;5073872;28;20183;-79
2022/12/23 05:49:39;;;;;;;0.10;0.10;;;8.40;99.90;;;;;;5059662;28;20222;-79
2022/12/23 05:52:05;;;;;;;0.10;0.10;;;8.40;99.90;;;;;;5072643;28;20192;-79
2022/12/23 05:54:30;;;;;;;0.00;0.00;;;8.40;99.90;;;;;;5071922;28;20204;-79
2022/12/23 05:56:56;;;;;;;0.10;0.10;;;8.50;99.90;;;;;;5060527;28;20206;-79
2022/12/23 05:59:21;;;;;;;0.10;0.10;;;8.70;99.90;;;;;;5075285;28;20207;-79
2022/12/23 06:01:47;;;;;;;0.10;0.10;;;8.50;99.90;;;;;;5071890;28;20179;-79
2022/12/23 06:04:12;;;;;;;0.10;0.10;;;8.60;99.90;;;;;;5075407;28;20281;-79
2022/12/23 06:06:38;;;;;;;0.10;0.10;;;8.50;99.90;;;;;;5060274;28;20191;-80
2022/12/23 06:09:03;;;;;;;0.10;0.10;;;8.40;99.90;;;;;;5056917;28;20217;-80
2022/12/23 06:11:29;;;;;;;0.10;0.10;;;8.40;99.90;;;;;;5070767;28;20197;-84
2022/12/23 06:13:54;;;;;;;0.10;0.10;;;8.40;99.90;;;;;;5056375;28;20200;-83
2022/12/23 06:16:20;;;;;;;0.10;0.10;;;8.40;99.90;;;;;;5072506;28;20190;-80
2022/12/23 06:18:46;;;;;;;0.10;0.10;;;8.50;99.90;;;;;;5053166;28;20204;-80
2022/12/23 06:21:11;;;;;;;0.10;0.10;;;8.50;99.90;;;;;;5064538;28;20212;-80
2022/12/23 06:23:37;;;;;;;0.10;0.10;;;8.50;99.90;;;;;;5051276;28;20183;-80
2022/12/23 06:26:02;;;;;;;0.10;0.10;;;8.60;99.90;;;;;;5049775;28;20656;-80
2022/12/23 06:28:28;;;;;;;0.03;0.03;;;8.80;99.90;;;;;;5052507;28;20208;-80
2022/12/23 06:30:55;;;;;;;0.10;0.10;;;8.90;99.90;;;;;;5070210;28;20211;-80
2022/12/23 06:33:22;;;;;;;0.10;0.10;;;9.00;99.90;;;;;;5049027;28;20200;-80
2022/12/23 06:35:47;;;;;;;0.10;0.10;;;9.10;99.90;;;;;;5047679;28;20189;-79
2022/12/23 06:38:13;;;;;;;0.03;0.03;;;9.10;99.90;;;;;;5052465;28;20192;-80
2022/12/23 06:40:39;;;;;;;0.10;0.10;;;9.10;99.90;;;;;;5051171;28;20258;-80
2022/12/23 06:43:04;;;;;;;0.10;0.10;;;9.20;99.90;;;;;;5051944;28;20665;-80
2022/12/23 06:45:30;;;;;;;0.10;0.10;;;9.20;99.90;;;;;;5065631;28;20610;-80
2022/12/23 06:47:55;;;;;;;0.03;0.03;;;9.20;99.90;;;;;;5066492;28;20219;-80
2022/12/23 06:50:21;;;;;;;0.10;0.10;;;9.20;99.90;;;;;;5057169;28;20229;-80
2022/12/23 06:52:47;;;;;;;0.03;0.03;;;9.30;99.90;;;;;;5056069;28;20678;-80
2022/12/23 06:55:13;;;;;;;0.10;0.10;;;9.30;99.90;;;;;;5069712;28;20223;-80
2022/12/23 06:57:39;;;;;;;0.10;0.10;;;9.20;99.90;;;;;;5071673;28;20668;-80
2022/12/23 07:00:05;;;;;;;0.10;0.10;;;9.20;99.90;;;;;;5072624;28;20289;-80
2022/12/23 07:02:31;;;;;;;0.10;0.10;;;9.20;99.90;;;;;;5072177;28;20181;-80
2022/12/23 07:04:56;;;;;;;0.10;0.10;;;9.10;99.90;;;;;;5054182;28;20620;-81
2022/12/23 07:07:22;;;;;;;0.10;0.10;;;9.20;99.90;;;;;;5052138;28;20476;-80
2022/12/23 07:09:47;;;;;;;0.10;0.10;;;9.20;99.90;;;;;;5051668;28;20221;-80
2022/12/23 07:12:13;;;;;;;0.10;0.10;;;9.20;99.90;;;;;;5053751;28;20278;-80
2022/12/23 07:14:39;;;;;;;0.10;0.10;;;9.10;99.90;;;;;;5070353;28;20186;-81
2022/12/23 07:17:05;;;;;;;0.10;0.10;;;9.20;99.90;;;;;;5065151;28;20192;-81
2022/12/23 07:19:30;;;;;;;0.10;0.10;;;9.20;99.90;;;;;;5054887;28;20207;-82
2022/12/23 07:21:57;;;;;;;0.10;0.10;;;9.10;99.90;;;;;;5051815;28;20191;-80
2022/12/23 07:24:22;;;;;;;0.10;0.10;;;9.10;99.90;;;;;;5052725;28;20192;-80
2022/12/23 07:26:49;;;;;;;0.10;0.10;;;9.10;99.90;;;;;;5053905;28;20193;-81
2022/12/23 07:29:15;;;;;;;0.10;0.10;;;9.20;99.90;;;;;;5054503;28;20223;-80
2022/12/23 07:31:40;;;;;;;0.10;0.10;;;9.30;99.90;;;;;;5067481;28;20209;-80
2022/12/23 07:34:06;;;;;;;0.10;0.10;;;9.40;99.90;;;;;;5069883;28;20196;-80
2022/12/23 07:36:32;;;;;;;0.10;0.10;;;9.40;99.90;;;;;;5053795;28;20187;-80
2022/12/23 07:38:57;;;;;;;0.10;0.10;;;9.50;99.90;;;;;;5067241;28;21050;-80
2022/12/23 07:41:23;;;;;;;0.10;0.10;;;9.50;99.90;;;;;;5051831;28;20185;-81
2022/12/23 07:43:48;;;;;;;0.10;0.10;;;9.40;99.90;;;;;;5073475;28;20301;-82
2022/12/23 07:46:14;;;;;;;0.10;0.10;;;9.30;99.90;;;;;;5053450;28;20281;-81
2022/12/23 07:48:40;;;;;;;0.10;0.10;;;9.20;99.90;;;;;;5074612;28;20298;-81
2022/12/23 07:51:06;;;;;;;0.10;0.10;;;9.20;99.90;;;;;;5073233;28;20204;-81
2022/12/23 07:53:32;;;;;;;0.10;0.10;;;9.00;99.90;;;;;;5073118;28;20207;-81
2022/12/23 07:55:57;;;;;;;0.10;0.10;;;9.00;99.90;;;;;;5057191;28;20194;-81
2022/12/23 07:58:24;;;;;;;0.10;0.10;;;8.90;99.90;;;;;;5060269;28;20289;-82
2022/12/23 08:00:57;;;;;;;0.10;0.10;;;8.80;99.90;;;;;;5072783;28;20214;-81
2022/12/23 08:03:23;;;;;;;0.00;0.00;;;8.70;99.90;;;;;;5059604;28;20183;-81
2022/12/23 08:05:58;;;;;;;0.10;0.10;;;8.60;99.90;;;;;;5071312;28;20184;-81
2022/12/23 08:08:24;;;;;;;0.10;0.10;;;8.60;99.90;;;;;;5059233;28;20262;-81
2022/12/23 08:10:49;;;;;;;0.10;0.10;;;8.70;99.90;;;;;;5070761;28;21340;-81
2022/12/23 08:13:16;;;;;;;0.10;0.10;;;8.70;99.90;;;;;;5056788;28;20214;-81
2022/12/23 08:15:41;;;;;;;0.10;0.10;;;8.80;99.90;;;;;;5072193;28;20183;-80
2022/12/23 08:18:07;;;;;;;0.10;0.10;;;8.90;99.90;;;;;;5056755;28;20491;-81
2022/12/23 08:20:32;;;;;;;0.10;0.10;;;9.00;99.90;;;;;;5071446;28;20629;-81
2022/12/23 08:22:58;;;;;;;0.10;0.10;;;9.10;99.90;;;;;;5070375;28;20187;-81
2022/12/23 08:25:23;;;;;;;0.10;0.10;;;9.10;99.90;;;;;;5071578;28;20279;-81
2022/12/23 08:27:50;;;;;;;0.10;0.10;;;9.20;99.90;;;;;;5075336;28;20268;-81
2022/12/23 08:30:15;;;;;;;0.10;0.10;;;9.30;99.90;;;;;;5074337;28;20198;-81
2022/12/23 08:32:41;;;;;;;0.10;0.10;;;9.40;99.90;;;;;;5077100;28;20321;-81
2022/12/23 08:35:07;;;;;;;0.10;0.10;;;9.40;99.90;;;;;;5061291;28;20200;-81
2022/12/23 08:37:32;;;;;;;0.10;0.10;;;9.40;99.90;;;;;;5059431;28;20316;-81
2022/12/23 08:39:58;;;;;;;0.10;0.10;;;9.40;99.90;;;;;;5056800;28;20256;-81
2022/12/23 08:42:23;;;;;;;0.07;0.07;;;9.40;99.90;;;;;;5068566;28;20983;-81
2022/12/23 08:44:49;;;;;;;0.10;0.10;;;9.50;99.90;;;;;;5066074;28;20763;-80
2022/12/23 08:47:15;;;;;;;0.37;0.37;;;9.40;99.90;;;;;;5047750;28;20186;-80
2022/12/23 08:49:40;;;;;;;0.10;0.10;;;9.50;99.90;;;;;;5070316;28;20277;-80
2022/12/23 08:52:06;;;;;;;0.10;0.10;;;9.60;99.90;;;;;;5050310;28;20193;-81
2022/12/23 08:54:31;;;;;;;0.10;0.10;;;9.70;99.90;;;;;;5065797;28;20640;-81
2022/12/23 08:56:57;;;;;;;0.10;0.10;;;9.80;99.90;;;;;;5048847;28;20191;-80
2022/12/23 08:59:22;;;;;;;0.00;0.00;;;9.90;99.90;;;;;;5049611;28;20204;-80
2022/12/23 09:01:48;;;;;;;0.10;0.10;;;9.90;99.90;;;;;;5063020;28;20287;-81
2022/12/23 09:04:14;;;;;;;0.10;0.10;;;9.90;99.90;;;;;;5053008;28;20276;-80
2022/12/23 09:06:41;;;;;;;0.10;0.10;;;9.70;99.90;;;;;;5070807;28;20188;-80
2022/12/23 09:09:08;;;;;;;0.10;0.10;;;9.40;99.90;;;;;;5054554;28;20217;-80
2022/12/23 09:11:34;;;;;;;0.10;0.10;;;9.40;99.90;;;;;;5055501;28;20184;-80
2022/12/23 09:14:00;;;;;;;0.00;0.00;;;9.50;99.90;;;;;;5068201;28;20187;-80
2022/12/23 09:16:26;;;;;;;0.10;0.10;;;9.70;99.90;;;;;;5067247;28;20178;-80
2022/12/23 09:18:53;;;;;;;0.10;0.10;;;9.80;99.90;;;;;;5051129;28;20185;-80
2022/12/23 09:21:21;;;;;;;0.10;0.10;;;9.80;99.90;;;;;;5053324;28;20196;-79
2022/12/23 09:23:46;;;;;;;0.10;0.10;;;9.50;99.90;;;;;;5056585;28;20192;-80
2022/12/23 09:26:21;;;;;;;0.10;0.10;;;9.60;99.90;;;;;;5067792;28;20181;-80
2022/12/23 09:28:47;;;;;;;0.10;0.10;;;9.50;99.90;;;;;;5054210;28;20204;-79
2022/12/23 09:31:13;;;;;;;0.10;0.10;;;9.60;99.90;;;;;;5065735;28;20219;-80
2022/12/23 09:33:39;;;;;;;0.10;0.10;;;9.40;99.90;;;;;;5053508;28;20406;-80
2022/12/23 09:36:05;;;;;;;0.10;0.10;;;9.40;99.90;;;;;;5066767;28;20223;-80
2022/12/23 09:38:31;;;;;;;0.10;0.10;;;9.40;99.90;;;;;;5069682;28;20195;-79
2022/12/23 09:41:02;;;;;;;0.10;0.10;;;9.50;99.90;;;;;;5052019;28;20552;-79
2022/12/23 09:43:42;;;;;;;0.10;0.10;;;9.80;99.90;;;;;;5053750;28;20280;-79
2022/12/23 09:46:31;;;;;;;0.10;0.10;;;10.10;99.90;;;;;;5068605;28;20193;-79
2022/12/23 09:49:07;;;;;;;0.10;0.10;;;10.10;99.90;;;;;;5053110;28;20213;-79
2022/12/23 09:51:32;;;;;;;0.00;0.00;;;10.00;99.90;;;;;;5054657;28;20204;-80
2022/12/23 09:54:04;;;;;;;0.10;0.10;;;9.80;99.90;;;;;;5068391;28;20264;-79
2022/12/23 09:57:17;;;;;;;0.07;0.07;;;9.80;99.90;;;;;;5072049;28;20198;-79
2022/12/23 10:00:06;;;;;;;0.10;0.10;;;9.90;99.90;;;;;;5050641;28;20256;-79
2022/12/23 10:02:38;;;;;;;0.10;0.10;;;9.80;99.90;;;;;;5053559;28;20268;-79
2022/12/23 10:05:16;;;;;;;0.10;0.10;;;9.70;99.90;;;;;;5051144;28;20250;-79
2022/12/23 10:07:44;;;;;;;0.10;0.10;;;9.70;99.90;;;;;;5054943;28;20200;-79
2022/12/23 10:10:20;;;;;;;0.10;0.10;;;9.60;99.90;;;;;;5054114;28;20304;-79
2022/12/23 10:12:49;;;;;;;0.10;0.10;;;9.70;99.90;;;;;;5053251;28;20181;-79
2022/12/23 10:15:27;;;;;;;0.10;0.10;;;9.70;99.90;;;;;;5054550;28;20827;-79
2022/12/23 10:17:57;;;;;;;0.10;0.10;;;9.60;99.90;;;;;;5052597;28;20207;-79
2022/12/23 10:20:38;;;;;;;0.10;0.10;;;9.50;99.90;;;;;;5074245;28;20288;-79
2022/12/23 10:23:09;;;;;;;0.10;0.10;;;9.50;99.90;;;;;;5072648;28;20679;-79
2022/12/23 10:25:43;;;;;;;0.10;0.10;;;9.50;99.90;;;;;;5059899;28;20178;-79
2022/12/23 10:28:10;;;;;;;0.10;0.10;;;9.50;99.90;;;;;;5058802;28;20686;-79
2022/12/23 10:30:39;;;;;;;0.10;0.10;;;9.70;99.90;;;;;;5071884;28;20200;-79
2022/12/23 10:33:19;;;;;;;0.10;0.10;;;9.60;99.90;;;;;;5071286;28;20217;-79
2022/12/23 10:35:49;;;;;;;0.10;0.10;;;9.70;99.90;;;;;;5069765;28;20188;-79
2022/12/23 10:38:31;;;;;;;0.10;0.10;;;9.90;99.90;;;;;;5059962;28;20682;-79
2022/12/23 10:41:14;;;;;;;0.10;0.10;;;9.80;99.90;;;;;;5060181;28;20717;-79
2022/12/23 10:43:51;;;;;;;0.10;0.10;;;9.80;99.90;;;;;;5055292;28;20204;-79
2022/12/23 10:46:52;;;;;;;0.10;0.10;;;9.80;99.90;;;;;;5072209;28;20192;-79
2022/12/23 10:49:39;;;;;;;0.10;0.10;;;9.70;99.90;;;;;;5048023;28;20239;-79
2022/12/23 10:52:22;;;;;;;0.10;0.10;;;9.60;99.90;;;;;;5071219;28;20189;-79
2022/12/23 10:54:48;;;;;;;0.10;0.10;;;9.40;99.90;;;;;;5054531;28;20559;-79
2022/12/23 10:57:17;;;;;;;0.10;0.10;;;9.50;99.90;;;;;;5074121;28;20201;-79
2022/12/23 10:59:44;;;;;;;0.10;0.10;;;9.50;99.90;;;;;;5073966;28;20726;-79
2022/12/23 11:02:12;;;;;;;0.10;0.10;;;9.50;99.90;;;;;;5055967;28;20218;-79
2022/12/23 11:04:41;;;;;;;0.10;0.10;;;9.40;99.90;;;;;;5059607;28;20721;-79
2022/12/23 11:07:15;;;;;;;0.10;0.10;;;9.40;99.90;;;;;;5054324;28;20756;-80
2022/12/23 11:09:59;;;;;;;0.10;0.10;;;9.40;99.90;;;;;;5058473;28;20319;-80
2022/12/23 11:12:38;;;;;;;0.10;0.10;;;9.50;99.90;;;;;;5065867;28;20189;-80
2022/12/23 11:15:04;;;;;;;0.10;0.10;;;9.50;99.90;;;;;;5055797;28;20191;-80
2022/12/23 11:17:33;;;;;;;0.10;0.10;;;9.40;99.90;;;;;;5066815;28;20189;-80
2022/12/23 11:20:11;;;;;;;0.10;0.10;;;9.40;99.90;;;;;;5071242;28;20221;-80
2022/12/23 11:22:52;;;;;;;0.10;0.10;;;9.40;99.90;;;;;;5070445;28;20262;-81
2022/12/23 11:25:37;;;;;;;0.00;0.00;;;9.40;99.90;;;;;;5054629;28;20185;-83
2022/12/23 11:28:14;;;;;;;0.00;0.00;;;9.40;99.90;;;;;;5058229;28;20617;-82
2022/12/23 11:30:55;;;;;;;0.10;0.10;;;9.50;99.90;;;;;;5076684;28;20271;-83
2022/12/23 11:33:27;;;;;;;0.10;0.10;;;9.60;99.90;;;;;;5062257;28;20181;-83
2022/12/23 11:36:07;;;;;;;0.10;0.10;;;9.70;99.90;;;;;;5072920;28;20188;-83
2022/12/23 11:38:36;;;;;;;0.07;0.07;;;9.80;99.90;;;;;;5072574;28;20288;-83
2022/12/23 11:41:03;;;;;;;0.10;0.10;;;9.70;99.90;;;;;;5057267;28;20222;-84
2022/12/23 11:43:31;;;;;;;0.10;0.10;;;9.80;99.90;;;;;;5070560;28;20189;-81
2022/12/23 11:46:22;;;;;;;0.10;0.10;;;9.90;99.90;;;;;;5055321;28;20184;-80
2022/12/23 11:48:57;;;;;;;0.10;0.10;;;9.90;99.90;;;;;;5070515;28;20205;-81
2022/12/23 11:51:25;;;;;;;0.10;0.10;;;9.70;99.90;;;;;;5069866;28;20188;-81
2022/12/23 11:53:59;;;;;;;0.00;0.00;;;9.70;99.90;;;;;;5055106;28;20647;-81
2022/12/23 11:56:25;;;;;;;0.10;0.10;;;9.70;99.90;;;;;;5056594;28;20180;-81
2022/12/23 11:59:01;;;;;;;0.10;0.10;;;9.90;99.90;;;;;;5054100;28;20203;-81
2022/12/23 12:01:27;;;;;;;0.00;0.00;;;10.00;99.90;;;;;;5054820;28;20189;-81
2022/12/23 12:04:02;;;;;;;0.10;0.10;;;10.10;99.90;;;;;;5071416;28;20196;-81
2022/12/23 12:06:30;;;;;;;0.10;0.10;;;10.20;99.90;;;;;;5056347;28;20192;-81
2022/12/23 12:08:59;;;;;;;0.10;0.10;;;10.00;99.90;;;;;;5071547;28;20213;-80
2022/12/23 12:11:28;;;;;;;0.10;0.10;;;9.80;99.90;;;;;;5055939;28;20665;-81
2022/12/23 12:14:06;;;;;;;0.10;0.10;;;9.80;99.90;;;;;;5054361;28;20653;-80
2022/12/23 12:16:58;;;;;;;0.07;0.07;;;9.70;99.90;;;;;;5051715;28;20185;-81
2022/12/23 12:19:35;;;;;;;0.10;0.10;;;9.60;99.90;;;;;;5069719;28;20234;-80
2022/12/23 12:22:12;;;;;;;0.10;0.10;;;9.70;99.90;;;;;;5053865;28;20189;-81
2022/12/23 12:24:43;;;;;;;0.10;0.10;;;9.70;99.90;;;;;;5073907;28;20199;-82
2022/12/23 12:27:10;;;;;;;0.10;0.10;;;9.60;99.90;;;;;;5073375;28;20216;-82
2022/12/23 12:29:42;;;;;;;0.10;0.10;;;9.60;99.90;;;;;;5058794;28;20631;-82
2022/12/23 12:32:20;;;;;;;0.10;0.10;;;9.50;99.90;;;;;;5069812;28;20633;-82
2022/12/23 12:34:59;;;;;;;0.10;0.10;;;9.50;99.90;;;;;;5054851;28;20258;-82
2022/12/23 12:37:36;;;;;;;0.03;0.03;;;9.50;99.90;;;;;;5070006;28;20184;-82
2022/12/23 12:40:26;;;;;;;0.10;0.10;;;9.60;99.90;;;;;;5071088;28;20216;-82
2022/12/23 12:43:17;;;;;;;0.10;0.10;;;9.70;99.90;;;;;;5056499;28;20189;-81
2022/12/23 12:46:25;;;;;;;0.10;0.10;;;9.70;99.90;;;;;;5057274;28;20198;-84
2022/12/23 12:49:10;;;;;;;0.07;0.07;;;9.60;99.90;;;;;;5053759;28;20756;-82
2022/12/23 12:51:55;;;;;;;0.30;0.30;;;9.60;99.90;;;;;;5064042;28;20619;-82
2022/12/23 12:54:42;;;;;;;0.10;0.10;;;9.50;99.90;;;;;;5052785;28;20196;-82
2022/12/23 12:57:17;;;;;;;0.10;0.10;;;9.50;99.90;;;;;;5052789;28;20197;-82
2022/12/23 12:59:48;;;;;;;0.10;0.10;;;9.50;99.90;;;;;;5070989;28;20312;-82
2022/12/23 13:02:38;;;;;;;0.10;0.10;;;9.70;99.90;;;;;;5056902;28;20687;-82
2022/12/23 13:05:39;;;;;;;0.10;0.10;;;9.80;99.90;;;;;;5068715;28;20196;-81
2022/12/23 13:08:19;;;;;;;0.10;0.10;;;9.80;99.90;;;;;;5051584;28;20285;-80
2022/12/23 13:10:53;;;;;;;0.10;0.10;;;9.70;99.90;;;;;;5069594;28;20212;-80
2022/12/23 13:13:42;;;;;;;0.10;0.10;;;9.70;99.90;;;;;;5052357;28;21080;-80
2022/12/23 13:16:41;;;;;;;0.10;0.10;;;9.80;99.90;;;;;;5069561;28;20273;-80
2022/12/23 13:19:35;;;;;;;0.10;0.10;;;9.90;99.90;;;;;;5052432;28;20181;-80
2022/12/23 13:22:25;;;;;;;0.00;0.00;;;9.90;99.90;;;;;;5066010;28;20196;-80
2022/12/23 13:25:09;;;;;;;0.10;0.10;;;9.90;99.90;;;;;;5047711;28;20215;-80
2022/12/23 13:27:56;;;;;;;0.10;0.10;;;9.80;99.90;;;;;;5052621;28;20193;-80
2022/12/23 13:30:29;;;;;;;0.10;0.10;;;9.80;99.90;;;;;;5066143;28;20215;-80
2022/12/23 13:33:32;;;;;;;0.10;0.10;;;9.80;99.90;;;;;;5047146;28;22469;-81
2022/12/23 13:36:12;;;;;;;0.00;0.00;;;9.80;99.90;;;;;;5069510;28;20183;-82
2022/12/23 13:38:48;;;;;;;0.10;0.10;;;9.80;99.90;;;;;;5052187;28;20180;-80
2022/12/23 13:41:52;;;;;;;0.07;0.07;;;9.90;99.90;;;;;;5053689;28;20231;-81
2022/12/23 13:44:18;;;;;;;0.10;0.10;;;10.00;99.90;;;;;;5053616;28;20291;-81
2022/12/23 13:47:39;;;;;;;0.10;0.10;;;10.20;99.90;;;;;;5067416;28;20256;-80
2022/12/23 13:50:30;;;;;;;0.10;0.10;;;10.10;99.90;;;;;;4992394;28;20309;-81